Time;durP1;ratioP1;P1;durP2;ratioP2;P2;SDS_P1;SDS_P2;PMS_P1;PMS_P2;Temp;Humidity;BMP_temperature;BMP_pressure;BME280_temperature;BME280_humidity;BME280_pressure;Samples;Min_cycle;Max_cycle;Signal;HPM_P1;HPM_P2
2023/05/13 00:01:37;;;;;;;10.48;6.30;;;15.80;99.90;;;;;;4996874;28;20046;-75
2023/05/13 00:04:07;;;;;;;10.38;6.28;;;15.70;99.90;;;;;;5000532;28;20447;-75
2023/05/13 00:06:33;;;;;;;11.35;5.97;;;15.70;99.90;;;;;;5000853;28;20490;-75
2023/05/13 00:08:59;;;;;;;13.82;6.18;;;15.50;99.90;;;;;;5000974;28;20061;-75
2023/05/13 00:11:25;;;;;;;14.07;6.10;;;15.50;99.90;;;;;;5000916;28;20451;-75
2023/05/13 00:13:51;;;;;;;14.77;6.80;;;15.40;99.90;;;;;;5000920;28;20042;-75
2023/05/13 00:16:16;;;;;;;9.30;6.60;;;15.40;99.90;;;;;;5000457;28;20085;-75
2023/05/13 00:18:42;;;;;;;11.30;6.97;;;15.50;99.90;;;;;;5000876;28;20064;-75
2023/05/13 00:21:08;;;;;;;10.55;6.40;;;15.40;99.90;;;;;;5000775;28;20037;-75
2023/05/13 00:23:33;;;;;;;12.52;6.75;;;15.30;99.90;;;;;;5000743;28;20117;-75
2023/05/13 00:26:00;;;;;;;15.52;6.32;;;15.30;99.90;;;;;;5000322;28;20042;-75
2023/05/13 00:28:25;;;;;;;11.82;5.95;;;15.40;99.90;;;;;;4983579;28;20391;-75
2023/05/13 00:30:51;;;;;;;9.52;5.70;;;15.30;99.90;;;;;;5000341;28;20026;-75
2023/05/13 00:33:17;;;;;;;9.57;6.00;;;15.20;99.90;;;;;;5000368;28;20117;-75
2023/05/13 00:35:42;;;;;;;9.63;6.50;;;15.20;99.90;;;;;;5000582;28;20078;-75
2023/05/13 00:38:08;;;;;;;10.63;5.75;;;15.20;99.90;;;;;;4983484;28;20446;-75
2023/05/13 00:40:38;;;;;;;9.00;6.05;;;15.20;99.90;;;;;;5000086;28;20124;-75
2023/05/13 00:43:05;;;;;;;8.88;6.38;;;15.20;99.90;;;;;;5000246;28;20035;-75
2023/05/13 00:45:30;;;;;;;10.95;6.85;;;15.20;99.90;;;;;;4981781;28;20134;-74
2023/05/13 00:48:00;;;;;;;8.93;6.15;;;15.20;99.90;;;;;;4998970;28;20113;-75
2023/05/13 00:50:26;;;;;;;11.65;6.20;;;15.20;99.90;;;;;;4998927;28;20438;-75
2023/05/13 00:52:52;;;;;;;8.93;6.30;;;15.20;99.90;;;;;;4998870;28;20038;-75
2023/05/13 00:55:18;;;;;;;10.55;7.07;;;15.20;99.90;;;;;;4999055;28;20046;-76
2023/05/13 00:57:44;;;;;;;10.63;6.80;;;15.20;99.90;;;;;;4998888;28;20045;-75
2023/05/13 01:00:10;;;;;;;10.57;6.80;;;15.30;99.90;;;;;;4998533;28;20052;-75
2023/05/13 01:02:46;;;;;;;9.30;6.18;;;15.20;99.90;;;;;;4998603;28;20046;-75
2023/05/13 01:05:18;;;;;;;;;;;15.20;99.90;;;;;;4999185;28;20081;-75
2023/05/13 01:08:06;;;;;;;11.05;7.00;;;15.10;99.90;;;;;;4998891;28;19917;-74
2023/05/13 01:10:50;;;;;;;10.63;7.38;;;15.10;99.90;;;;;;4998814;28;20046;-75
2023/05/13 01:13:27;;;;;;;12.80;6.97;;;15.00;99.90;;;;;;4998356;28;20042;-75
2023/05/13 01:16:02;;;;;;;13.43;7.72;;;14.90;99.90;;;;;;4998236;28;20454;-75
2023/05/13 01:18:33;;;;;;;14.20;7.28;;;14.90;99.90;;;;;;4998553;28;20038;-75
2023/05/13 01:21:00;;;;;;;13.50;7.82;;;14.80;99.90;;;;;;4998736;28;20113;-75
2023/05/13 01:23:26;;;;;;;14.15;8.05;;;14.80;99.90;;;;;;4998199;28;20042;-75
2023/05/13 01:25:51;;;;;;;11.77;7.70;;;14.80;99.90;;;;;;4998462;28;20042;-75
2023/05/13 01:28:18;;;;;;;13.63;8.60;;;14.80;99.90;;;;;;4998456;28;20038;-75
2023/05/13 01:30:45;;;;;;;16.35;9.35;;;14.70;99.90;;;;;;4981261;28;20297;-74
2023/05/13 01:33:11;;;;;;;10.73;7.68;;;14.70;99.90;;;;;;4998330;28;20334;-74
2023/05/13 01:35:37;;;;;;;11.05;8.93;;;14.60;99.90;;;;;;4998096;28;20046;-75
2023/05/13 01:38:04;;;;;;;13.60;8.07;;;14.60;99.90;;;;;;4998155;28;20108;-75
2023/05/13 01:40:31;;;;;;;11.98;8.02;;;14.60;99.90;;;;;;4998300;28;20049;-75
2023/05/13 01:42:57;;;;;;;12.82;8.07;;;14.60;99.90;;;;;;4980887;28;20054;-75
2023/05/13 01:45:22;;;;;;;12.60;8.57;;;14.60;99.90;;;;;;4959880;28;1099399;-74
2023/05/13 01:47:48;;;;;;;14.50;8.45;;;14.70;99.90;;;;;;4999205;28;20046;-74
2023/05/13 01:50:13;;;;;;;12.13;7.93;;;14.70;99.90;;;;;;4998946;28;20038;-75
2023/05/13 01:52:39;;;;;;;11.82;8.32;;;14.70;99.90;;;;;;4981634;28;20057;-75
2023/05/13 01:55:05;;;;;;;10.88;7.93;;;14.70;99.90;;;;;;4999084;28;20049;-75
2023/05/13 01:57:31;;;;;;;15.40;9.07;;;14.60;99.90;;;;;;4998957;28;20035;-75
2023/05/13 01:59:56;;;;;;;13.85;8.75;;;14.60;99.90;;;;;;4981411;28;20129;-74
2023/05/13 02:02:22;;;;;;;16.25;8.82;;;14.60;99.90;;;;;;4998837;28;20049;-75
2023/05/13 02:04:47;;;;;;;16.38;9.07;;;14.70;99.90;;;;;;4998734;28;20046;-74
2023/05/13 02:07:13;;;;;;;15.80;8.88;;;14.60;99.90;;;;;;4998713;28;20383;-75
2023/05/13 02:09:39;;;;;;;11.80;8.25;;;14.60;99.90;;;;;;4998913;28;20048;-75
2023/05/13 02:12:05;;;;;;;13.98;9.18;;;14.50;99.90;;;;;;4998674;28;20080;-75
2023/05/13 02:14:30;;;;;;;12.27;8.27;;;14.50;99.90;;;;;;4980989;28;20409;-75
2023/05/13 02:16:56;;;;;;;13.15;8.70;;;14.40;99.90;;;;;;4998682;28;20078;-75
2023/05/13 02:19:23;;;;;;;18.38;9.68;;;14.30;99.90;;;;;;4998652;28;20038;-75
2023/05/13 02:21:49;;;;;;;14.45;9.02;;;14.30;99.90;;;;;;4998293;28;20138;-75
2023/05/13 02:24:15;;;;;;;17.10;9.20;;;14.30;99.90;;;;;;4980859;28;20487;-75
2023/05/13 02:26:41;;;;;;;11.82;7.95;;;14.20;99.90;;;;;;4997976;28;20117;-75
2023/05/13 02:29:07;;;;;;;12.50;9.30;;;14.20;99.90;;;;;;4998320;28;20125;-75
2023/05/13 02:31:32;;;;;;;12.02;8.45;;;14.20;99.90;;;;;;4998108;28;20060;-75
2023/05/13 02:33:58;;;;;;;18.73;10.05;;;14.10;99.90;;;;;;4998310;28;20038;-75
2023/05/13 02:36:24;;;;;;;17.58;8.85;;;14.10;99.90;;;;;;4998276;28;20042;-75
2023/05/13 02:38:49;;;;;;;15.68;9.05;;;14.10;99.90;;;;;;4980984;28;20042;-74
2023/05/13 02:41:15;;;;;;;13.73;9.27;;;14.10;99.90;;;;;;4998179;28;20069;-75
2023/05/13 02:43:41;;;;;;;16.58;10.68;;;14.10;99.90;;;;;;4997895;28;20038;-74
2023/05/13 02:46:07;;;;;;;21.27;11.18;;;14.10;99.90;;;;;;4997403;28;20444;-75
2023/05/13 02:48:32;;;;;;;17.15;10.82;;;14.10;99.90;;;;;;4997810;28;20181;-75
2023/05/13 02:50:58;;;;;;;17.90;11.80;;;14.00;99.90;;;;;;4998039;28;20038;-75
2023/05/13 02:53:24;;;;;;;16.30;10.70;;;14.00;99.90;;;;;;4997753;28;20402;-75
2023/05/13 02:55:49;;;;;;;15.55;11.52;;;14.00;99.90;;;;;;4997828;28;20057;-75
2023/05/13 02:58:15;;;;;;;15.38;10.93;;;14.10;99.90;;;;;;4998002;28;20431;-75
2023/05/13 03:00:41;;;;;;;18.55;10.57;;;14.10;99.90;;;;;;4997666;28;20038;-75
2023/05/13 03:03:07;;;;;;;18.55;11.10;;;14.10;99.90;;;;;;4997904;28;20137;-75
2023/05/13 03:05:33;;;;;;;17.90;11.30;;;14.20;99.90;;;;;;4997404;28;20487;-75
2023/05/13 03:07:58;;;;;;;17.83;10.88;;;14.20;99.90;;;;;;4997791;28;20042;-75
2023/05/13 03:10:24;;;;;;;17.65;11.38;;;14.20;99.90;;;;;;4980578;28;20050;-75
2023/05/13 03:12:50;;;;;;;18.10;11.40;;;14.20;99.90;;;;;;4997570;28;20070;-75
2023/05/13 03:15:16;;;;;;;12.63;10.05;;;14.20;99.90;;;;;;4997253;28;20053;-75
2023/05/13 03:17:43;;;;;;;17.80;10.77;;;14.20;99.90;;;;;;4997453;28;20042;-75
2023/05/13 03:20:09;;;;;;;18.77;11.30;;;14.00;99.90;;;;;;4997653;28;20383;-75
2023/05/13 03:22:37;;;;;;;19.92;13.07;;;13.90;99.90;;;;;;4997487;28;20046;-75
2023/05/13 03:25:07;;;;;;;17.77;12.05;;;14.00;99.90;;;;;;4997427;28;20089;-75
2023/05/13 03:27:32;;;;;;;19.95;11.75;;;13.90;99.90;;;;;;4997204;28;20038;-75
2023/05/13 03:29:58;;;;;;;19.23;11.60;;;13.90;99.90;;;;;;4997314;28;20049;-75
2023/05/13 03:32:29;;;;;;;20.23;11.80;;;13.80;99.90;;;;;;4997247;28;20077;-75
2023/05/13 03:34:56;;;;;;;19.27;12.88;;;13.90;99.90;;;;;;4997061;28;20042;-75
2023/05/13 03:37:22;;;;;;;18.25;11.23;;;14.00;99.90;;;;;;4997146;28;20042;-75
2023/05/13 03:39:48;;;;;;;20.45;12.07;;;13.90;99.90;;;;;;4997191;28;20136;-75
2023/05/13 03:42:13;;;;;;;18.42;11.27;;;14.00;99.90;;;;;;4997313;28;20097;-75
2023/05/13 03:44:39;;;;;;;20.88;12.00;;;14.00;99.90;;;;;;4996471;28;20054;-75
2023/05/13 03:47:05;;;;;;;19.02;12.02;;;14.10;99.90;;;;;;4997238;28;20042;-74
2023/05/13 03:49:31;;;;;;;14.52;10.05;;;14.00;99.90;;;;;;4996860;28;20097;-75
2023/05/13 03:51:56;;;;;;;14.70;11.15;;;14.00;99.90;;;;;;4997150;28;20042;-75
2023/05/13 03:54:22;;;;;;;17.83;11.45;;;13.90;99.90;;;;;;4997248;28;20039;-75
2023/05/13 03:56:47;;;;;;;19.05;12.23;;;13.80;99.90;;;;;;4997016;28;20042;-75
2023/05/13 03:59:13;;;;;;;18.58;12.48;;;13.80;99.90;;;;;;4997026;28;20073;-75
2023/05/13 04:01:39;;;;;;;17.45;12.38;;;13.80;99.90;;;;;;4996770;28;20557;-75
2023/05/13 04:04:04;;;;;;;16.88;10.35;;;13.90;99.90;;;;;;4979766;28;20050;-75
2023/05/13 04:06:30;;;;;;;18.60;11.55;;;13.90;99.90;;;;;;4997076;28;20042;-75
2023/05/13 04:08:56;;;;;;;19.90;11.88;;;13.90;99.90;;;;;;4997063;28;20089;-75
2023/05/13 04:11:22;;;;;;;21.17;11.38;;;13.90;99.90;;;;;;4996846;28;20451;-75
2023/05/13 04:13:47;;;;;;;21.25;13.70;;;14.00;99.90;;;;;;4996982;28;20489;-75
2023/05/13 04:16:13;;;;;;;19.08;11.57;;;14.00;99.90;;;;;;4996718;28;20427;-75
2023/05/13 04:18:39;;;;;;;18.58;11.32;;;13.90;99.90;;;;;;4979506;28;20308;-75
2023/05/13 04:21:06;;;;;;;17.80;11.20;;;13.90;99.90;;;;;;4996675;28;20088;-75
2023/05/13 04:23:32;;;;;;;18.48;12.57;;;14.00;99.90;;;;;;4979461;28;20050;-75
2023/05/13 04:25:57;;;;;;;19.13;11.82;;;14.10;99.90;;;;;;4996851;28;20074;-75
2023/05/13 04:28:23;;;;;;;15.38;10.60;;;14.10;99.90;;;;;;4996692;28;20040;-75
2023/05/13 04:30:48;;;;;;;19.88;11.68;;;14.10;99.90;;;;;;4996810;28;20034;-75
2023/05/13 04:33:15;;;;;;;15.77;11.32;;;14.20;99.90;;;;;;4996960;28;20041;-76
2023/05/13 04:35:41;;;;;;;15.30;11.50;;;14.20;99.90;;;;;;4979409;28;20117;-75
2023/05/13 04:38:07;;;;;;;18.33;10.30;;;14.30;99.90;;;;;;4996847;28;20455;-75
2023/05/13 04:40:32;;;;;;;17.70;11.20;;;14.30;99.90;;;;;;4996662;28;20396;-75
2023/05/13 04:42:58;;;;;;;18.75;10.75;;;14.40;99.90;;;;;;4996520;28;20060;-75
2023/05/13 04:45:24;;;;;;;20.48;10.57;;;14.40;99.90;;;;;;4995995;28;20092;-74
2023/05/13 04:47:50;;;;;;;20.95;12.30;;;14.30;99.90;;;;;;4997059;28;20416;-75
2023/05/13 04:50:15;;;;;;;18.50;10.15;;;14.20;99.90;;;;;;5000201;28;20113;-74
2023/05/13 04:52:46;;;;;;;17.88;11.50;;;14.20;99.90;;;;;;4982999;28;20328;-75
2023/05/13 04:55:11;;;;;;;17.30;10.63;;;14.20;99.90;;;;;;5000145;28;20046;-75
2023/05/13 04:57:37;;;;;;;16.98;11.38;;;14.20;99.90;;;;;;5000054;28;20126;-75
2023/05/13 05:00:04;;;;;;;18.42;10.35;;;14.40;99.90;;;;;;5000168;28;20053;-75
2023/05/13 05:02:29;;;;;;;20.35;10.85;;;14.50;99.90;;;;;;4999817;28;20054;-75
2023/05/13 05:04:56;;;;;;;20.23;11.45;;;14.60;99.90;;;;;;4982835;28;20047;-75
2023/05/13 05:07:21;;;;;;;16.17;9.95;;;14.50;99.90;;;;;;4999882;28;20034;-75
2023/05/13 05:09:47;;;;;;;17.23;10.95;;;14.50;99.90;;;;;;5000049;28;20053;-75
2023/05/13 05:12:13;;;;;;;19.73;10.43;;;14.60;99.90;;;;;;4982512;28;20046;-75
2023/05/13 05:14:39;;;;;;;15.85;10.02;;;14.70;99.90;;;;;;4982181;28;20038;-75
2023/05/13 05:17:05;;;;;;;18.35;9.75;;;14.60;99.90;;;;;;4999839;28;20057;-75
2023/05/13 05:19:30;;;;;;;18.48;10.77;;;14.60;99.90;;;;;;4999436;28;20042;-75
2023/05/13 05:21:57;;;;;;;17.90;11.05;;;14.80;99.90;;;;;;4999830;28;20042;-75
2023/05/13 05:24:22;;;;;;;13.68;9.60;;;14.80;99.90;;;;;;4999480;28;20046;-75
2023/05/13 05:26:48;;;;;;;17.13;9.57;;;14.80;99.90;;;;;;4982297;28;20337;-75
2023/05/13 05:29:14;;;;;;;14.40;9.27;;;14.80;99.90;;;;;;4999406;28;20042;-75
2023/05/13 05:31:39;;;;;;;13.55;9.20;;;14.80;99.90;;;;;;4999338;28;20046;-75
2023/05/13 05:34:05;;;;;;;18.92;9.27;;;14.90;99.90;;;;;;4999635;28;20359;-75
2023/05/13 05:36:31;;;;;;;16.50;10.18;;;14.90;99.90;;;;;;4999357;28;20489;-75
2023/05/13 05:38:57;;;;;;;22.90;9.73;;;15.00;99.90;;;;;;4999460;28;20042;-75
2023/05/13 05:41:22;;;;;;;14.82;9.30;;;15.20;99.90;;;;;;4999244;28;20038;-75
2023/05/13 05:43:48;;;;;;;16.60;9.75;;;15.30;99.90;;;;;;4999175;28;20034;-75
2023/05/13 05:46:15;;;;;;;15.57;9.35;;;15.30;99.90;;;;;;4998424;28;20347;-76
2023/05/13 05:48:41;;;;;;;14.73;9.15;;;15.40;99.90;;;;;;4999002;28;20096;-75
2023/05/13 05:51:06;;;;;;;16.55;9.20;;;15.40;99.90;;;;;;4998836;28;20455;-76
2023/05/13 05:53:34;;;;;;;13.52;8.60;;;15.50;99.90;;;;;;4999035;28;20070;-75
2023/05/13 05:56:00;;;;;;;13.18;7.85;;;15.60;99.90;;;;;;4999110;28;20050;-79
2023/05/13 05:58:25;;;;;;;16.45;10.10;;;15.70;99.90;;;;;;4998864;28;20043;-75
2023/05/13 06:00:53;;;;;;;16.58;8.07;;;15.60;99.90;;;;;;4983280;28;20138;-75
2023/05/13 06:03:20;;;;;;;15.23;9.07;;;15.70;99.90;;;;;;4979434;28;20055;-75
2023/05/13 06:05:45;;;;;;;15.57;8.93;;;15.80;99.90;;;;;;4979245;28;20121;-75
2023/05/13 06:08:11;;;;;;;12.90;7.47;;;15.90;99.90;;;;;;4979218;28;20070;-75
2023/05/13 06:10:37;;;;;;;12.68;8.75;;;16.00;99.90;;;;;;4979327;28;20104;-75
2023/05/13 06:13:03;;;;;;;12.02;7.97;;;16.10;99.90;;;;;;4979049;28;20035;-75
2023/05/13 06:15:29;;;;;;;13.95;7.97;;;16.00;99.90;;;;;;4961635;28;20039;-76
2023/05/13 06:17:55;;;;;;;14.68;8.45;;;16.20;99.90;;;;;;4979042;28;20451;-75
2023/05/13 06:20:21;;;;;;;12.15;7.07;;;16.30;99.90;;;;;;4979125;28;20047;-69
2023/05/13 06:22:47;;;;;;;11.35;7.28;;;16.50;99.90;;;;;;4979227;28;20486;-71
2023/05/13 06:25:13;;;;;;;15.25;8.30;;;16.70;99.90;;;;;;4979084;28;20360;-72
2023/05/13 06:27:38;;;;;;;15.38;8.07;;;16.80;99.90;;;;;;4978941;28;20353;-69
2023/05/13 06:30:05;;;;;;;13.13;7.65;;;16.80;99.90;;;;;;4981586;28;20042;-72
2023/05/13 06:32:31;;;;;;;12.05;7.90;;;16.70;99.90;;;;;;4988255;28;20081;-71
2023/05/13 06:34:57;;;;;;;12.13;6.95;;;16.80;99.90;;;;;;4997608;28;20078;-71
2023/05/13 06:37:23;;;;;;;9.77;6.85;;;17.00;99.90;;;;;;4998216;28;20093;-70
2023/05/13 06:39:48;;;;;;;12.13;7.43;;;17.10;99.90;;;;;;4998343;28;20038;-70
2023/05/13 06:42:14;;;;;;;11.30;7.15;;;17.10;99.90;;;;;;4997960;28;20425;-71
2023/05/13 06:44:40;;;;;;;10.73;7.70;;;17.20;99.90;;;;;;4997423;28;20045;-72
2023/05/13 06:47:07;;;;;;;15.50;7.97;;;17.30;99.90;;;;;;4997775;28;20498;-71
2023/05/13 06:49:33;;;;;;;11.80;7.75;;;17.30;99.90;;;;;;4996238;28;20527;-73
2023/05/13 06:51:58;;;;;;;12.95;7.38;;;17.40;99.90;;;;;;5007126;28;20058;-72
2023/05/13 06:54:25;;;;;;;13.68;7.85;;;17.40;99.90;;;;;;5016221;28;20102;-72
2023/05/13 06:56:52;;;;;;;11.90;7.25;;;17.50;99.90;;;;;;5017459;28;20343;-71
2023/05/13 06:59:19;;;;;;;11.95;7.47;;;17.50;99.90;;;;;;5017416;28;20042;-77
2023/05/13 07:01:44;;;;;;;11.85;7.38;;;17.60;99.90;;;;;;5017589;28;20057;-73
2023/05/13 07:04:11;;;;;;;13.30;7.63;;;17.60;99.90;;;;;;5001343;28;20427;-73
2023/05/13 07:06:36;;;;;;;14.80;7.78;;;17.70;99.90;;;;;;5018319;28;20046;-71
2023/05/13 07:09:02;;;;;;;11.40;6.72;;;17.80;99.90;;;;;;4999847;28;20506;-71
2023/05/13 07:11:28;;;;;;;11.45;6.90;;;17.80;99.90;;;;;;5017081;28;20044;-71
2023/05/13 07:13:54;;;;;;;13.45;7.60;;;17.90;99.90;;;;;;5017040;28;20117;-72
2023/05/13 07:16:20;;;;;;;11.90;7.22;;;18.00;99.90;;;;;;5017040;28;20045;-71
2023/05/13 07:18:45;;;;;;;10.23;7.43;;;18.00;99.90;;;;;;5016898;28;20092;-71
2023/05/13 07:21:13;;;;;;;11.15;6.68;;;18.00;99.90;;;;;;5017031;28;20041;-71
2023/05/13 07:23:39;;;;;;;11.80;7.20;;;18.00;99.90;;;;;;5017148;28;20046;-71
2023/05/13 07:26:04;;;;;;;12.57;6.90;;;18.10;99.90;;;;;;5017025;28;20042;-70
2023/05/13 07:28:30;;;;;;;11.48;6.97;;;18.20;99.90;;;;;;5016776;28;20042;-70
2023/05/13 07:30:56;;;;;;;11.63;7.38;;;18.20;99.90;;;;;;5016987;28;20042;-84
2023/05/13 07:33:21;;;;;;;15.45;7.60;;;18.10;99.90;;;;;;4983558;28;20128;-70
2023/05/13 07:35:47;;;;;;;11.52;7.50;;;18.00;99.90;;;;;;4999596;28;20423;-82
2023/05/13 07:38:13;;;;;;;11.60;7.45;;;18.00;99.90;;;;;;4999724;28;20414;-80
2023/05/13 07:40:40;;;;;;;8.57;6.88;;;17.90;99.90;;;;;;4999293;28;20077;-81
2023/05/13 07:43:06;;;;;;;13.95;6.97;;;17.90;99.90;;;;;;4999219;28;20062;-82
2023/05/13 07:45:32;;;;;;;9.93;6.50;;;17.90;99.90;;;;;;4993971;28;20061;-70
2023/05/13 07:47:57;;;;;;;13.88;6.70;;;17.80;99.90;;;;;;4994927;28;20054;-72
2023/05/13 07:50:23;;;;;;;13.18;7.15;;;17.90;99.90;;;;;;4997137;28;20214;-70
2023/05/13 07:52:50;;;;;;;12.40;6.72;;;18.10;99.90;;;;;;4996962;28;20070;-69
2023/05/13 07:55:16;;;;;;;15.70;7.20;;;18.30;99.90;;;;;;4996918;28;20494;-69
2023/05/13 07:57:42;;;;;;;10.90;7.05;;;18.50;99.90;;;;;;4997134;28;20046;-70
2023/05/13 08:00:08;;;;;;;12.25;6.65;;;18.50;99.90;;;;;;4996334;28;20073;-69
2023/05/13 08:02:37;;;;;;;13.98;6.50;;;18.50;99.90;;;;;;4996890;28;20097;-80
2023/05/13 08:05:03;;;;;;;9.63;6.57;;;18.50;99.90;;;;;;4979718;28;20042;-81
2023/05/13 08:07:29;;;;;;;12.73;6.68;;;18.10;99.90;;;;;;4979828;28;20057;-84
2023/05/13 08:09:55;;;;;;;11.15;7.82;;;18.10;99.90;;;;;;4979870;28;20344;-70
2023/05/13 08:12:20;;;;;;;10.25;6.65;;;18.20;99.90;;;;;;4997055;28;20081;-70
2023/05/13 08:14:46;;;;;;;8.65;6.32;;;18.60;99.90;;;;;;4996687;28;20042;-71
2023/05/13 08:17:12;;;;;;;13.75;6.78;;;18.90;99.90;;;;;;4996911;28;20038;-70
2023/05/13 08:19:37;;;;;;;13.00;7.13;;;19.00;99.90;;;;;;4996868;28;20065;-70
2023/05/13 08:22:03;;;;;;;11.77;6.95;;;19.20;99.90;;;;;;4996687;28;20367;-70
2023/05/13 08:24:29;;;;;;;9.88;6.38;;;19.30;99.90;;;;;;4982363;28;20093;-70
2023/05/13 08:26:55;;;;;;;10.35;7.07;;;19.40;99.90;;;;;;5000486;28;20117;-71
2023/05/13 08:29:21;;;;;;;9.57;6.15;;;19.40;99.90;;;;;;5000517;28;20042;-70
2023/05/13 08:31:46;;;;;;;9.73;6.03;;;19.50;99.90;;;;;;5000745;28;20034;-70
2023/05/13 08:34:12;;;;;;;13.93;6.45;;;19.70;99.90;;;;;;5000454;28;20050;-70
2023/05/13 08:36:38;;;;;;;7.65;5.72;;;19.70;99.90;;;;;;5000641;28;20039;-70
2023/05/13 08:39:04;;;;;;;12.45;5.88;;;19.70;99.90;;;;;;5000270;28;20129;-70
2023/05/13 08:41:30;;;;;;;10.93;5.78;;;20.00;99.90;;;;;;4982854;28;20331;-71
2023/05/13 08:43:57;;;;;;;8.48;4.82;;;20.20;99.90;;;;;;5000601;28;20117;-70
2023/05/13 08:46:24;;;;;;;7.45;4.90;;;20.30;99.90;;;;;;4999561;28;20225;-70
2023/05/13 08:48:50;;;;;;;9.25;4.88;;;20.30;99.90;;;;;;5000110;28;20056;-70
2023/05/13 08:51:16;;;;;;;15.75;4.97;;;20.40;99.90;;;;;;5000088;28;20038;-70
2023/05/13 08:53:43;;;;;;;7.95;4.95;;;20.50;99.90;;;;;;5000197;28;20327;-71
2023/05/13 08:56:09;;;;;;;7.50;4.15;;;20.60;99.90;;;;;;4999887;28;20046;-71
2023/05/13 08:58:35;;;;;;;6.68;3.88;;;20.60;99.90;;;;;;5000228;28;20486;-70
2023/05/13 09:01:04;;;;;;;8.98;4.00;;;20.60;99.90;;;;;;4999931;28;20042;-71
2023/05/13 09:03:30;;;;;;;8.48;3.97;;;20.80;99.90;;;;;;4999938;28;20064;-77
2023/05/13 09:05:58;;;;;;;10.40;4.03;;;20.90;99.90;;;;;;5000129;28;20501;-71
2023/05/13 09:08:24;;;;;;;6.93;3.70;;;21.10;99.90;;;;;;4999877;28;20049;-71
2023/05/13 09:10:50;;;;;;;9.07;3.90;;;21.30;99.90;;;;;;4999989;28;20042;-72
2023/05/13 09:13:16;;;;;;;9.05;3.30;;;21.40;99.90;;;;;;4999774;28;20089;-69
2023/05/13 09:15:43;;;;;;;9.02;3.38;;;21.60;99.90;;;;;;4999613;28;20378;-71
2023/05/13 09:18:09;;;;;;;7.95;4.40;;;21.50;99.90;;;;;;4999586;28;20053;-71
2023/05/13 09:20:35;;;;;;;6.30;3.45;;;21.40;99.90;;;;;;4999881;28;20169;-71
2023/05/13 09:23:09;;;;;;;6.53;3.75;;;21.50;99.90;;;;;;4982291;28;20313;-71
2023/05/13 09:25:38;;;;;;;6.60;3.50;;;21.70;99.90;;;;;;4999531;28;20039;-71
2023/05/13 09:28:06;;;;;;;13.05;3.55;;;21.70;99.90;;;;;;4999740;28;20034;-83
2023/05/13 09:30:39;;;;;;;6.25;3.70;;;21.70;99.90;;;;;;4982200;28;20125;-83
2023/05/13 09:33:08;;;;;;;6.03;3.45;;;21.40;99.90;;;;;;4966127;28;20431;-84
2023/05/13 09:35:36;;;;;;;12.80;4.88;;;21.20;99.90;;;;;;4982025;28;20050;-84
2023/05/13 09:38:21;;;;;;;9.95;4.72;;;21.00;99.90;;;;;;4981870;28;20053;-85
2023/05/13 09:40:54;;;;;;;9.93;4.88;;;20.80;99.90;;;;;;4982344;28;20428;-85
2023/05/13 09:43:22;;;;;;;7.43;4.65;;;21.00;99.90;;;;;;4982342;28;20350;-86
2023/05/13 09:45:52;;;;;;;6.18;4.45;;;20.90;99.90;;;;;;4981644;28;20317;-85
2023/05/13 09:48:21;;;;;;;7.78;4.68;;;20.90;99.90;;;;;;4965805;28;20089;-88
2023/05/13 09:50:56;;;;;;;8.57;4.13;;;21.20;99.90;;;;;;4967107;28;20045;-77
2023/05/13 09:53:23;;;;;;;6.97;4.35;;;21.10;99.90;;;;;;4981877;28;20074;-76
2023/05/13 09:55:56;;;;;;;9.98;4.97;;;21.30;99.90;;;;;;4998896;28;20081;-76
2023/05/13 09:58:24;;;;;;;11.90;4.85;;;21.60;99.90;;;;;;4982066;28;20069;-76
2023/05/13 10:00:50;;;;;;;6.88;4.07;;;21.70;99.90;;;;;;4981623;28;20050;-77
2023/05/13 10:03:16;;;;;;;8.60;4.43;;;22.00;99.90;;;;;;4999051;28;20042;-76
2023/05/13 10:05:42;;;;;;;8.15;4.07;;;22.00;99.90;;;;;;4998606;28;20038;-76
2023/05/13 10:08:11;;;;;;;8.13;3.92;;;22.00;99.90;;;;;;4981674;28;20049;-76
2023/05/13 10:10:37;;;;;;;11.30;4.47;;;22.20;99.90;;;;;;4998897;28;20036;-76
2023/05/13 10:13:12;;;;;;;9.05;4.50;;;22.30;99.90;;;;;;4981407;28;20039;-76
2023/05/13 10:15:54;;;;;;;9.40;3.92;;;22.50;99.90;;;;;;4998096;28;20069;-77
2023/05/13 10:18:22;;;;;;;11.35;4.65;;;22.70;99.90;;;;;;4981470;28;20042;-76
2023/05/13 10:20:54;;;;;;;9.00;4.10;;;22.80;99.90;;;;;;4981462;28;20054;-76
2023/05/13 10:23:22;;;;;;;11.40;5.13;;;22.90;99.90;;;;;;4981199;28;20053;-76
2023/05/13 10:25:49;;;;;;;10.30;4.97;;;22.70;99.90;;;;;;4981126;28;20096;-77
2023/05/13 10:28:16;;;;;;;9.88;4.75;;;22.80;99.90;;;;;;4981222;28;20085;-76
2023/05/13 10:30:42;;;;;;;9.52;4.63;;;23.00;99.90;;;;;;4981033;28;20050;-77
2023/05/13 10:33:08;;;;;;;7.53;4.38;;;23.00;99.90;;;;;;4998496;28;20040;-76
2023/05/13 10:35:39;;;;;;;8.32;4.20;;;23.00;99.90;;;;;;4998163;28;20042;-77
2023/05/13 10:38:14;;;;;;;7.38;3.70;;;23.20;99.90;;;;;;4980906;28;20368;-76
2023/05/13 10:41:03;;;;;;;6.35;3.95;;;23.50;99.90;;;;;;4980850;28;20083;-76
2023/05/13 10:43:31;;;;;;;9.23;5.25;;;23.50;99.90;;;;;;4998160;28;20121;-77
2023/05/13 10:45:58;;;;;;;9.73;4.45;;;23.50;99.90;;;;;;4979735;28;20065;-77
2023/05/13 10:48:24;;;;;;;6.43;4.10;;;23.60;99.90;;;;;;4998087;28;20409;-77
2023/05/13 10:51:01;;;;;;;12.90;4.00;;;23.60;99.90;;;;;;4997917;28;20069;-77
2023/05/13 10:53:29;;;;;;;7.72;3.65;;;23.70;99.90;;;;;;4964496;28;20376;-77
2023/05/13 10:55:56;;;;;;;7.70;4.10;;;23.90;99.90;;;;;;4980592;28;20042;-77
2023/05/13 10:58:31;;;;;;;11.90;4.60;;;23.90;99.90;;;;;;4997804;28;20046;-77
2023/05/13 11:01:14;;;;;;;9.40;4.30;;;23.90;99.90;;;;;;4998009;28;20042;-75
2023/05/13 11:03:48;;;;;;;9.90;3.88;;;23.90;99.90;;;;;;4980764;28;20058;-70
2023/05/13 11:06:19;;;;;;;12.43;3.90;;;23.80;99.90;;;;;;4997855;28;20078;-70
2023/05/13 11:08:46;;;;;;;8.73;3.92;;;24.40;99.90;;;;;;4998164;28;20046;-71
2023/05/13 11:11:22;;;;;;;7.28;4.18;;;24.90;99.90;;;;;;4997733;28;20419;-70
2023/05/13 11:13:48;;;;;;;;;;;25.20;99.90;;;;;;4997960;28;20038;-71
2023/05/13 11:16:14;;;;;;;6.85;4.00;;;25.60;99.90;;;;;;4997223;28;19997;-70
2023/05/13 11:18:40;;;;;;;7.72;3.83;;;25.50;99.90;;;;;;4997708;28;20446;-70
2023/05/13 11:21:07;;;;;;;6.35;3.80;;;25.60;99.90;;;;;;4980079;28;20042;-71
2023/05/13 11:23:54;;;;;;;11.32;4.10;;;25.60;99.90;;;;;;4997463;28;20046;-71
2023/05/13 11:26:20;;;;;;;9.38;4.15;;;25.80;99.90;;;;;;4997182;28;20432;-70
2023/05/13 11:28:56;;;;;;;7.07;3.35;;;25.90;99.90;;;;;;4980069;28;20053;-71
2023/05/13 11:31:22;;;;;;;;;;;26.00;99.90;;;;;;4997884;28;20046;-70
2023/05/13 11:34:11;;;;;;;6.38;3.13;;;26.20;99.90;;;;;;4979936;28;19918;-70
2023/05/13 11:36:39;;;;;;;6.80;3.38;;;26.40;99.90;;;;;;4997090;28;20065;-71
2023/05/13 11:39:19;;;;;;;6.70;3.45;;;26.30;99.90;;;;;;4997134;28;20092;-70
2023/05/13 11:41:47;;;;;;;6.18;3.22;;;26.40;99.90;;;;;;4997031;28;20099;-70
2023/05/13 11:44:21;;;;;;;8.18;3.30;;;26.20;99.90;;;;;;4997182;28;20339;-77
2023/05/13 11:46:54;;;;;;;7.57;3.33;;;26.10;99.90;;;;;;4996504;28;20050;-77
2023/05/13 11:49:29;;;;;;;11.10;3.55;;;25.70;99.90;;;;;;4979804;28;20043;-79
2023/05/13 11:51:57;;;;;;;5.72;3.75;;;25.30;99.90;;;;;;4980112;28;20097;-70
2023/05/13 11:54:22;;;;;;;7.10;4.10;;;25.10;99.90;;;;;;4997065;28;20097;-69
2023/05/13 11:56:48;;;;;;;8.07;4.60;;;25.40;99.90;;;;;;4997022;28;20034;-71
2023/05/13 11:59:14;;;;;;;7.18;4.55;;;25.60;99.90;;;;;;5000994;28;20038;-69
2023/05/13 12:01:40;;;;;;;9.35;4.78;;;25.60;99.90;;;;;;5001255;28;20045;-71
2023/05/13 12:04:06;;;;;;;9.60;4.40;;;26.10;99.90;;;;;;5000990;28;20035;-71
2023/05/13 12:06:32;;;;;;;7.72;4.35;;;26.50;99.90;;;;;;5001041;28;20089;-71
2023/05/13 12:09:05;;;;;;;7.70;3.72;;;26.70;99.90;;;;;;5000834;28;20131;-71
2023/05/13 12:11:31;;;;;;;10.70;3.42;;;27.00;99.90;;;;;;5001058;28;20173;-71
2023/05/13 12:13:56;;;;;;;10.57;3.33;;;26.90;99.90;;;;;;5000821;28;20038;-71
2023/05/13 12:16:23;;;;;;;9.57;3.80;;;27.00;99.90;;;;;;5000226;28;20046;-71
2023/05/13 12:19:05;;;;;;;6.63;3.38;;;27.40;99.90;;;;;;5000987;28;20042;-71
2023/05/13 12:21:32;;;;;;;11.95;4.45;;;27.70;99.90;;;;;;5000520;28;20431;-71
2023/05/13 12:23:58;;;;;;;6.47;4.32;;;27.90;99.90;;;;;;5000779;28;20042;-71
2023/05/13 12:26:24;;;;;;;11.80;4.18;;;28.00;99.90;;;;;;5000432;28;20054;-71
2023/05/13 12:29:00;;;;;;;6.45;3.20;;;27.50;99.90;;;;;;5000608;28;20125;-74
2023/05/13 12:31:26;;;;;;;8.25;3.83;;;27.90;99.90;;;;;;5000574;28;20419;-71
2023/05/13 12:33:52;;;;;;;10.05;3.17;;;28.10;99.90;;;;;;5000581;28;20045;-71
2023/05/13 12:36:35;;;;;;;7.85;3.50;;;28.10;99.90;;;;;;5000632;28;20078;-71
2023/05/13 12:39:09;;;;;;;9.40;3.20;;;27.80;99.90;;;;;;5000208;28;20077;-71